sensor_id;sensor_type;location;lat;lon;timestamp;pressure;altitude;pressure_sealevel;temperature;humidity
73516;BME280;61763;51.416;5.442;2023-04-06T00:01:30;101730.94;;;0.96;99.40
73516;BME280;61763;51.416;5.442;2023-04-06T00:03:56;101725.59;;;0.90;100.00
73516;BME280;61763;51.416;5.442;2023-04-06T00:06:21;101722.88;;;0.82;100.00
73516;BME280;61763;51.416;5.442;2023-04-06T00:08:47;101722.88;;;0.78;100.00
73516;BME280;61763;51.416;5.442;2023-04-06T00:11:12;101725.50;;;0.73;100.00
73516;BME280;61763;51.416;5.442;2023-04-06T00:13:38;101724.63;;;0.74;100.00
73516;BME280;61763;51.416;5.442;2023-04-06T00:16:03;101722.84;;;0.72;100.00
73516;BME280;61763;51.416;5.442;2023-04-06T00:18:31;101730.78;;;0.61;100.00
73516;BME280;61763;51.416;5.442;2023-04-06T00:20:56;101727.19;;;0.51;100.00
73516;BME280;61763;51.416;5.442;2023-04-06T00:23:21;101721.88;;;0.51;100.00
73516;BME280;61763;51.416;5.442;2023-04-06T00:25:47;101720.06;;;0.45;100.00
73516;BME280;61763;51.416;5.442;2023-04-06T00:28:12;101716.53;;;0.43;100.00
73516;BME280;61763;51.416;5.442;2023-04-06T00:30:38;101718.25;;;0.38;100.00
73516;BME280;61763;51.416;5.442;2023-04-06T00:33:03;101707.72;;;0.52;100.00
73516;BME280;61763;51.416;5.442;2023-04-06T00:35:28;101708.56;;;0.46;100.00
73516;BME280;61763;51.416;5.442;2023-04-06T00:37:54;101705.88;;;0.42;100.00
73516;BME280;61763;51.416;5.442;2023-04-06T00:40:19;101705.06;;;0.57;100.00
73516;BME280;61763;51.416;5.442;2023-04-06T00:42:46;101709.50;;;0.56;100.00
73516;BME280;61763;51.416;5.442;2023-04-06T00:45:13;101708.69;;;0.66;100.00
73516;BME280;61763;51.416;5.442;2023-04-06T00:47:39;101704.25;;;0.67;100.00
73516;BME280;61763;51.416;5.442;2023-04-06T00:50:05;101693.63;;;0.78;100.00
73516;BME280;61763;51.416;5.442;2023-04-06T00:52:30;101693.63;;;0.70;100.00
73516;BME280;61763;51.416;5.442;2023-04-06T00:54:56;101687.44;;;0.69;100.00
73516;BME280;61763;51.416;5.442;2023-04-06T00:57:21;101682.16;;;0.80;99.69
73516;BME280;61763;51.416;5.442;2023-04-06T00:59:47;101675.00;;;0.67;99.29
73516;BME280;61763;51.416;5.442;2023-04-06T01:02:12;101674.19;;;0.85;99.74
73516;BME280;61763;51.416;5.442;2023-04-06T01:04:37;101676.84;;;0.91;99.79
73516;BME280;61763;51.416;5.442;2023-04-06T01:07:03;101673.31;;;0.89;100.00
73516;BME280;61763;51.416;5.442;2023-04-06T01:09:28;101669.75;;;0.84;99.75
73516;BME280;61763;51.416;5.442;2023-04-06T01:11:57;101665.31;;;0.77;100.00
73516;BME280;61763;51.416;5.442;2023-04-06T01:14:24;101667.09;;;0.84;100.00
73516;BME280;61763;51.416;5.442;2023-04-06T01:16:51;101669.72;;;0.70;100.00
73516;BME280;61763;51.416;5.442;2023-04-06T01:19:16;101674.09;;;0.60;100.00
73516;BME280;61763;51.416;5.442;2023-04-06T01:21:42;101676.75;;;0.59;100.00
73516;BME280;61763;51.416;5.442;2023-04-06T01:24:08;101667.00;;;0.55;100.00
73516;BME280;61763;51.416;5.442;2023-04-06T01:26:35;101662.56;;;0.50;100.00
73516;BME280;61763;51.416;5.442;2023-04-06T01:29:02;101664.41;;;0.70;100.00
73516;BME280;61763;51.416;5.442;2023-04-06T01:31:28;101661.72;;;0.62;100.00
73516;BME280;61763;51.416;5.442;2023-04-06T01:33:54;101662.56;;;0.57;100.00
73516;BME280;61763;51.416;5.442;2023-04-06T01:36:20;101659.94;;;0.58;100.00
73516;BME280;61763;51.416;5.442;2023-04-06T01:38:46;101659.06;;;0.58;100.00
73516;BME280;61763;51.416;5.442;2023-04-06T01:41:11;101651.06;;;0.58;100.00
73516;BME280;61763;51.416;5.442;2023-04-06T01:43:37;101651.97;;;0.61;100.00
73516;BME280;61763;51.416;5.442;2023-04-06T01:46:02;101644.84;;;0.57;100.00
73516;BME280;61763;51.416;5.442;2023-04-06T01:48:27;101644.00;;;0.61;100.00
73516;BME280;61763;51.416;5.442;2023-04-06T01:50:53;101643.16;;;0.73;100.00
73516;BME280;61763;51.416;5.442;2023-04-06T01:53:19;101634.31;;;0.90;100.00
73516;BME280;61763;51.416;5.442;2023-04-06T01:55:45;101641.44;;;1.00;100.00
73516;BME280;61763;51.416;5.442;2023-04-06T01:58:10;101629.06;;;1.07;100.00
73516;BME280;61763;51.416;5.442;2023-04-06T02:00:36;101626.41;;;1.08;100.00
73516;BME280;61763;51.416;5.442;2023-04-06T02:03:01;101637.03;;;1.11;100.00
73516;BME280;61763;51.416;5.442;2023-04-06T02:05:29;101630.84;;;1.17;100.00
73516;BME280;61763;51.416;5.442;2023-04-06T02:07:55;101625.53;;;1.18;100.00
73516;BME280;61763;51.416;5.442;2023-04-06T02:10:21;101630.84;;;1.20;100.00
73516;BME280;61763;51.416;5.442;2023-04-06T02:12:47;101621.09;;;1.22;100.00
73516;BME280;61763;51.416;5.442;2023-04-06T02:15:13;101622.00;;;1.26;100.00
73516;BME280;61763;51.416;5.442;2023-04-06T02:17:39;101616.66;;;1.29;100.00
73516;BME280;61763;51.416;5.442;2023-04-06T02:20:05;101614.88;;;1.31;100.00
73516;BME280;61763;51.416;5.442;2023-04-06T02:22:31;101607.81;;;1.30;100.00
73516;BME280;61763;51.416;5.442;2023-04-06T02:24:56;101614.00;;;1.32;100.00
73516;BME280;61763;51.416;5.442;2023-04-06T02:27:22;101613.13;;;1.30;100.00
73516;BME280;61763;51.416;5.442;2023-04-06T02:29:47;101613.13;;;1.33;100.00
73516;BME280;61763;51.416;5.442;2023-04-06T02:32:13;101606.91;;;1.34;100.00
73516;BME280;61763;51.416;5.442;2023-04-06T02:34:38;101612.25;;;1.38;100.00
73516;BME280;61763;51.416;5.442;2023-04-06T02:37:04;101598.94;;;1.38;100.00
73516;BME280;61763;51.416;5.442;2023-04-06T02:39:29;101590.06;;;1.41;100.00
73516;BME280;61763;51.416;5.442;2023-04-06T02:41:55;101590.97;;;1.45;100.00
73516;BME280;61763;51.416;5.442;2023-04-06T02:44:21;101594.50;;;1.44;100.00
73516;BME280;61763;51.416;5.442;2023-04-06T02:46:46;101583.84;;;1.45;100.00
73516;BME280;61763;51.416;5.442;2023-04-06T02:49:11;101585.63;;;1.48;100.00
73516;BME280;61763;51.416;5.442;2023-04-06T02:51:37;101578.53;;;1.48;100.00
73516;BME280;61763;51.416;5.442;2023-04-06T02:54:02;101583.84;;;1.50;100.00
73516;BME280;61763;51.416;5.442;2023-04-06T02:56:28;101577.63;;;1.57;100.00
73516;BME280;61763;51.416;5.442;2023-04-06T02:58:53;101574.06;;;1.72;100.00
73516;BME280;61763;51.416;5.442;2023-04-06T03:01:18;101571.41;;;1.70;100.00
73516;BME280;61763;51.416;5.442;2023-04-06T03:03:44;101575.84;;;1.71;100.00
73516;BME280;61763;51.416;5.442;2023-04-06T03:06:09;101579.38;;;1.70;100.00
73516;BME280;61763;51.416;5.442;2023-04-06T03:08:35;101554.53;;;1.79;100.00
73516;BME280;61763;51.416;5.442;2023-04-06T03:11:00;101558.97;;;1.82;100.00
73516;BME280;61763;51.416;5.442;2023-04-06T03:13:26;101559.84;;;1.82;100.00
73516;BME280;61763;51.416;5.442;2023-04-06T03:15:51;101554.50;;;1.87;100.00
73516;BME280;61763;51.416;5.442;2023-04-06T03:18:21;101558.06;;;1.90;100.00
73516;BME280;61763;51.416;5.442;2023-04-06T03:20:48;101564.25;;;1.89;100.00
73516;BME280;61763;51.416;5.442;2023-04-06T03:23:13;101561.59;;;1.91;100.00
73516;BME280;61763;51.416;5.442;2023-04-06T03:25:39;101551.81;;;1.99;100.00
73516;BME280;61763;51.416;5.442;2023-04-06T03:28:05;101547.34;;;2.06;100.00
73516;BME280;61763;51.416;5.442;2023-04-06T03:30:30;101548.22;;;2.09;100.00
73516;BME280;61763;51.416;5.442;2023-04-06T03:32:55;101550.91;;;2.06;100.00
73516;BME280;61763;51.416;5.442;2023-04-06T03:35:21;101541.13;;;2.07;100.00
73516;BME280;61763;51.416;5.442;2023-04-06T03:37:46;101551.78;;;2.04;100.00
73516;BME280;61763;51.416;5.442;2023-04-06T03:40:11;101540.25;;;2.00;100.00
73516;BME280;61763;51.416;5.442;2023-04-06T03:42:37;101545.59;;;2.02;100.00
73516;BME280;61763;51.416;5.442;2023-04-06T03:45:02;101545.56;;;2.00;100.00
73516;BME280;61763;51.416;5.442;2023-04-06T03:47:28;101543.81;;;1.99;100.00
73516;BME280;61763;51.416;5.442;2023-04-06T03:49:53;101542.03;;;2.01;100.00
73516;BME280;61763;51.416;5.442;2023-04-06T03:52:19;101542.03;;;1.98;100.00
73516;BME280;61763;51.416;5.442;2023-04-06T03:54:45;101540.25;;;1.97;100.00
73516;BME280;61763;51.416;5.442;2023-04-06T03:57:10;101538.47;;;2.07;100.00
73516;BME280;61763;51.416;5.442;2023-04-06T03:59:36;101541.16;;;1.98;100.00
73516;BME280;61763;51.416;5.442;2023-04-06T04:02:01;101547.34;;;2.04;99.10
73516;BME280;61763;51.416;5.442;2023-04-06T04:04:26;101537.59;;;2.00;99.13
73516;BME280;61763;51.416;5.442;2023-04-06T04:06:52;101539.34;;;2.14;98.49
73516;BME280;61763;51.416;5.442;2023-04-06T04:09:17;101538.47;;;2.07;97.00
73516;BME280;61763;51.416;5.442;2023-04-06T04:11:43;101542.03;;;2.00;97.53
73516;BME280;61763;51.416;5.442;2023-04-06T04:14:08;101547.38;;;1.97;97.90
73516;BME280;61763;51.416;5.442;2023-04-06T04:16:34;101542.94;;;1.92;97.57
73516;BME280;61763;51.416;5.442;2023-04-06T04:18:59;101544.75;;;1.89;97.59
73516;BME280;61763;51.416;5.442;2023-04-06T04:21:25;101543.00;;;1.83;97.66
73516;BME280;61763;51.416;5.442;2023-04-06T04:23:53;101541.22;;;1.90;96.65
73516;BME280;61763;51.416;5.442;2023-04-06T04:26:18;101535.88;;;1.84;96.52
73516;BME280;61763;51.416;5.442;2023-04-06T04:28:44;101543.88;;;1.82;96.90
73516;BME280;61763;51.416;5.442;2023-04-06T04:31:10;101542.09;;;1.77;97.26
73516;BME280;61763;51.416;5.442;2023-04-06T04:33:37;101543.91;;;1.74;99.10
73516;BME280;61763;51.416;5.442;2023-04-06T04:36:03;101548.34;;;1.71;99.21
73516;BME280;61763;51.416;5.442;2023-04-06T04:38:29;101535.03;;;1.72;99.12
73516;BME280;61763;51.416;5.442;2023-04-06T04:40:55;101539.44;;;1.75;98.17
73516;BME280;61763;51.416;5.442;2023-04-06T04:43:20;101522.63;;;1.67;98.23
73516;BME280;61763;51.416;5.442;2023-04-06T04:45:46;101538.56;;;1.74;98.28
73516;BME280;61763;51.416;5.442;2023-04-06T04:48:11;101528.78;;;1.77;98.17
73516;BME280;61763;51.416;5.442;2023-04-06T04:50:36;101529.69;;;1.79;98.54
73516;BME280;61763;51.416;5.442;2023-04-06T04:53:02;101530.53;;;1.85;98.42
73516;BME280;61763;51.416;5.442;2023-04-06T04:55:30;101532.28;;;1.97;97.28
73516;BME280;61763;51.416;5.442;2023-04-06T04:57:56;101525.22;;;1.96;97.44
73516;BME280;61763;51.416;5.442;2023-04-06T05:00:21;101524.28;;;2.08;96.71
73516;BME280;61763;51.416;5.442;2023-04-06T05:02:47;101525.09;;;2.15;96.35
73516;BME280;61763;51.416;5.442;2023-04-06T05:05:12;101522.44;;;2.15;96.30
73516;BME280;61763;51.416;5.442;2023-04-06T05:07:37;101508.19;;;2.23;95.23
73516;BME280;61763;51.416;5.442;2023-04-06T05:10:03;101523.22;;;2.38;94.12
73516;BME280;61763;51.416;5.442;2023-04-06T05:12:28;101517.00;;;2.39;93.78
73516;BME280;61763;51.416;5.442;2023-04-06T05:14:54;101522.28;;;2.45;93.53
73516;BME280;61763;51.416;5.442;2023-04-06T05:17:20;101518.75;;;2.45;93.76
73516;BME280;61763;51.416;5.442;2023-04-06T05:19:45;101524.03;;;2.50;93.74
73516;BME280;61763;51.416;5.442;2023-04-06T05:22:11;101525.78;;;2.55;92.88
73516;BME280;61763;51.416;5.442;2023-04-06T05:24:39;101515.97;;;2.60;92.86
73516;BME280;61763;51.416;5.442;2023-04-06T05:27:05;101523.06;;;2.65;92.38
73516;BME280;61763;51.416;5.442;2023-04-06T05:29:30;101525.66;;;2.75;91.35
73516;BME280;61763;51.416;5.442;2023-04-06T05:31:56;101530.09;;;2.76;91.44
73516;BME280;61763;51.416;5.442;2023-04-06T05:34:21;101532.72;;;2.79;91.64
73516;BME280;61763;51.416;5.442;2023-04-06T05:36:47;101530.88;;;2.91;90.64
73516;BME280;61763;51.416;5.442;2023-04-06T05:39:12;101520.13;;;3.00;89.41
73516;BME280;61763;51.416;5.442;2023-04-06T05:41:38;101521.00;;;3.02;89.30
73516;BME280;61763;51.416;5.442;2023-04-06T05:44:04;101520.09;;;3.05;88.92
73516;BME280;61763;51.416;5.442;2023-04-06T05:46:31;101511.03;;;3.26;88.38
73516;BME280;61763;51.416;5.442;2023-04-06T05:48:57;101514.56;;;3.26;89.03
73516;BME280;61763;51.416;5.442;2023-04-06T05:51:24;101509.22;;;3.28;88.18
73516;BME280;61763;51.416;5.442;2023-04-06T05:53:50;101515.28;;;3.45;86.47
73516;BME280;61763;51.416;5.442;2023-04-06T05:56:15;101518.81;;;3.46;86.72
73516;BME280;61763;51.416;5.442;2023-04-06T05:58:41;101505.41;;;3.55;85.24
73516;BME280;61763;51.416;5.442;2023-04-06T06:01:06;101508.94;;;3.56;86.11
73516;BME280;61763;51.416;5.442;2023-04-06T06:03:34;101514.25;;;3.59;86.34
73516;BME280;61763;51.416;5.442;2023-04-06T06:06:02;101511.47;;;3.68;86.02
73516;BME280;61763;51.416;5.442;2023-04-06T06:08:28;101514.91;;;3.79;85.57
73516;BME280;61763;51.416;5.442;2023-04-06T06:10:53;101513.97;;;3.85;84.30
73516;BME280;61763;51.416;5.442;2023-04-06T06:13:18;101506.72;;;3.95;83.91
73516;BME280;61763;51.416;5.442;2023-04-06T06:15:46;101521.72;;;4.07;82.92
73516;BME280;61763;51.416;5.442;2023-04-06T06:18:11;101523.38;;;4.17;83.29
73516;BME280;61763;51.416;5.442;2023-04-06T06:20:37;101512.41;;;4.35;83.05
73516;BME280;61763;51.416;5.442;2023-04-06T06:23:02;101515.03;;;4.40;82.04
73516;BME280;61763;51.416;5.442;2023-04-06T06:25:28;101509.44;;;4.59;81.67
73516;BME280;61763;51.416;5.442;2023-04-06T06:27:56;101513.78;;;4.66;81.88
73516;BME280;61763;51.416;5.442;2023-04-06T06:30:21;101511.88;;;4.72;81.68
73516;BME280;61763;51.416;5.442;2023-04-06T06:32:47;101504.69;;;4.78;79.84
73516;BME280;61763;51.416;5.442;2023-04-06T06:35:12;101510.81;;;4.83;80.14
73516;BME280;61763;51.416;5.442;2023-04-06T06:37:38;101512.53;;;4.87;78.78
73516;BME280;61763;51.416;5.442;2023-04-06T06:40:04;101509.75;;;4.93;78.69
73516;BME280;61763;51.416;5.442;2023-04-06T06:42:29;101508.78;;;4.99;77.40
73516;BME280;61763;51.416;5.442;2023-04-06T06:44:55;101510.69;;;4.92;79.36
73516;BME280;61763;51.416;5.442;2023-04-06T06:47:20;101509.75;;;4.95;78.99
73516;BME280;61763;51.416;5.442;2023-04-06T06:49:46;101507.13;;;4.91;79.58
73516;BME280;61763;51.416;5.442;2023-04-06T06:52:11;101503.53;;;4.94;78.92
73516;BME280;61763;51.416;5.442;2023-04-06T06:54:36;101508.78;;;4.99;77.65
73516;BME280;61763;51.416;5.442;2023-04-06T06:57:04;101504.44;;;4.91;78.25
73516;BME280;61763;51.416;5.442;2023-04-06T06:59:30;101500.94;;;4.88;78.55
73516;BME280;61763;51.416;5.442;2023-04-06T07:01:55;101509.59;;;5.05;77.33
73516;BME280;61763;51.416;5.442;2023-04-06T07:04:21;101508.72;;;5.02;77.21
73516;BME280;61763;51.416;5.442;2023-04-06T07:06:46;101497.94;;;5.09;77.33
73516;BME280;61763;51.416;5.442;2023-04-06T07:09:12;101510.28;;;5.17;76.67
73516;BME280;61763;51.416;5.442;2023-04-06T07:11:37;101508.25;;;5.30;76.69
73516;BME280;61763;51.416;5.442;2023-04-06T07:14:03;101499.19;;;5.38;75.11
73516;BME280;61763;51.416;5.442;2023-04-06T07:16:29;101494.63;;;5.45;77.00
73516;BME280;61763;51.416;5.442;2023-04-06T07:18:55;101497.88;;;5.61;75.21
73516;BME280;61763;51.416;5.442;2023-04-06T07:21:20;101500.41;;;5.69;74.04
73516;BME280;61763;51.416;5.442;2023-04-06T07:23:46;101500.31;;;5.73;74.67
73516;BME280;61763;51.416;5.442;2023-04-06T07:26:13;101500.28;;;5.75;74.16
73516;BME280;61763;51.416;5.442;2023-04-06T07:28:38;101504.44;;;5.90;74.86
73516;BME280;61763;51.416;5.442;2023-04-06T07:31:04;101497.91;;;6.05;73.74
73516;BME280;61763;51.416;5.442;2023-04-06T07:33:30;101500.69;;;6.00;74.14
73516;BME280;61763;51.416;5.442;2023-04-06T07:35:56;101493.13;;;6.21;74.07
73516;BME280;61763;51.416;5.442;2023-04-06T07:38:22;101492.28;;;6.19;73.19
73516;BME280;61763;51.416;5.442;2023-04-06T07:40:47;101498.09;;;6.39;72.96
73516;BME280;61763;51.416;5.442;2023-04-06T07:43:14;101493.28;;;6.54;71.70
73516;BME280;61763;51.416;5.442;2023-04-06T07:45:40;101490.31;;;6.66;73.14
73516;BME280;61763;51.416;5.442;2023-04-06T07:48:06;101481.84;;;6.83;70.14
73516;BME280;61763;51.416;5.442;2023-04-06T07:50:31;101491.66;;;6.84;70.89
73516;BME280;61763;51.416;5.442;2023-04-06T07:52:58;101482.78;;;6.82;69.96
73516;BME280;61763;51.416;5.442;2023-04-06T07:55:23;101487.16;;;6.84;70.92
73516;BME280;61763;51.416;5.442;2023-04-06T07:57:50;101479.97;;;6.87;69.99
73516;BME280;61763;51.416;5.442;2023-04-06T08:00:16;101492.81;;;6.74;73.26
73516;BME280;61763;51.416;5.442;2023-04-06T08:02:42;101490.19;;;6.71;72.07
73516;BME280;61763;51.416;5.442;2023-04-06T08:05:07;101487.75;;;6.61;73.38
73516;BME280;61763;51.416;5.442;2023-04-06T08:07:35;101480.88;;;6.86;72.48
73516;BME280;61763;51.416;5.442;2023-04-06T08:10:01;101491.53;;;6.89;73.45
73516;BME280;61763;51.416;5.442;2023-04-06T08:12:27;101477.75;;;7.04;74.46
73516;BME280;61763;51.416;5.442;2023-04-06T08:14:52;101476.31;;;7.25;73.75
73516;BME280;61763;51.416;5.442;2023-04-06T08:17:19;101483.03;;;7.42;73.91
73516;BME280;61763;51.416;5.442;2023-04-06T08:19:44;101483.16;;;7.37;74.12
73516;BME280;61763;51.416;5.442;2023-04-06T08:22:11;101487.22;;;7.52;72.27
73516;BME280;61763;51.416;5.442;2023-04-06T08:24:36;101486.09;;;7.61;71.32
73516;BME280;61763;51.416;5.442;2023-04-06T08:27:02;101487.63;;;7.69;72.40
73516;BME280;61763;51.416;5.442;2023-04-06T08:29:28;101490.06;;;7.79;72.46
73516;BME280;61763;51.416;5.442;2023-04-06T08:31:53;101496.00;;;7.90;71.58
73516;BME280;61763;51.416;5.442;2023-04-06T08:34:19;101485.84;;;8.01;70.87
73516;BME280;61763;51.416;5.442;2023-04-06T08:36:45;101482.91;;;8.09;71.21
73516;BME280;61763;51.416;5.442;2023-04-06T08:39:11;101490.06;;;8.10;71.08
73516;BME280;61763;51.416;5.442;2023-04-06T08:41:37;101491.50;;;8.22;69.76
73516;BME280;61763;51.416;5.442;2023-04-06T08:44:03;101492.41;;;8.21;70.86
73516;BME280;61763;51.416;5.442;2023-04-06T08:46:29;101502.31;;;8.20;70.95
73516;BME280;61763;51.416;5.442;2023-04-06T08:49:04;101493.00;;;8.02;70.39
73516;BME280;61763;51.416;5.442;2023-04-06T08:51:32;101490.41;;;8.29;69.68
73516;BME280;61763;51.416;5.442;2023-04-06T08:53:59;101490.59;;;8.21;68.85
73516;BME280;61763;51.416;5.442;2023-04-06T08:56:26;101494.91;;;8.27;69.13
73516;BME280;61763;51.416;5.442;2023-04-06T08:58:54;101492.53;;;8.48;68.16
73516;BME280;61763;51.416;5.442;2023-04-06T09:01:21;101490.09;;;8.38;68.59
73516;BME280;61763;51.416;5.442;2023-04-06T09:03:49;101495.97;;;8.53;69.04
73516;BME280;61763;51.416;5.442;2023-04-06T09:06:15;101500.44;;;8.54;69.16
73516;BME280;61763;51.416;5.442;2023-04-06T09:08:41;101500.59;;;8.77;67.64
73516;BME280;61763;51.416;5.442;2023-04-06T09:11:07;101505.47;;;8.65;67.81
73516;BME280;61763;51.416;5.442;2023-04-06T09:13:47;101505.13;;;8.75;69.53
73516;BME280;61763;51.416;5.442;2023-04-06T09:16:13;101502.56;;;8.71;69.52
73516;BME280;61763;51.416;5.442;2023-04-06T09:18:39;101503.41;;;8.73;70.33
73516;BME280;61763;51.416;5.442;2023-04-06T09:21:06;101502.28;;;8.80;70.88
73516;BME280;61763;51.416;5.442;2023-04-06T09:23:32;101498.81;;;8.76;73.31
73516;BME280;61763;51.416;5.442;2023-04-06T09:28:43;101503.22;;;8.79;74.43
73516;BME280;61763;51.416;5.442;2023-04-06T09:31:09;101505.81;;;9.09;76.11
73516;BME280;61763;51.416;5.442;2023-04-06T09:33:40;101499.91;;;9.24;75.93
73516;BME280;61763;51.416;5.442;2023-04-06T09:36:06;101505.09;;;9.31;72.43
73516;BME280;61763;51.416;5.442;2023-04-06T09:38:39;101495.59;;;9.45;72.60
73516;BME280;61763;51.416;5.442;2023-04-06T09:41:23;101503.94;;;9.38;73.38
73516;BME280;61763;51.416;5.442;2023-04-06T09:44:05;101502.69;;;9.73;72.60
73516;BME280;61763;51.416;5.442;2023-04-06T09:46:35;101494.72;;;9.70;71.15
73516;BME280;61763;51.416;5.442;2023-04-06T09:49:02;101503.16;;;9.85;70.08
73516;BME280;61763;51.416;5.442;2023-04-06T09:51:30;101508.34;;;9.40;72.00
73516;BME280;61763;51.416;5.442;2023-04-06T09:53:56;101502.47;;;9.54;72.95
73516;BME280;61763;51.416;5.442;2023-04-06T09:56:28;101500.25;;;9.40;75.72
73516;BME280;61763;51.416;5.442;2023-04-06T09:59:00;101498.13;;;9.50;76.92
73516;BME280;61763;51.416;5.442;2023-04-06T10:01:29;101499.22;;;9.44;80.54
73516;BME280;61763;51.416;5.442;2023-04-06T10:04:24;101498.97;;;9.25;81.67
73516;BME280;61763;51.416;5.442;2023-04-06T10:06:52;101493.44;;;9.55;83.40
73516;BME280;61763;51.416;5.442;2023-04-06T10:09:22;101497.44;;;9.43;84.50
73516;BME280;61763;51.416;5.442;2023-04-06T10:11:50;101502.78;;;9.45;83.64
73516;BME280;61763;51.416;5.442;2023-04-06T10:14:15;101501.00;;;9.45;86.25
73516;BME280;61763;51.416;5.442;2023-04-06T10:16:42;101501.09;;;9.16;85.78
73516;BME280;61763;51.416;5.442;2023-04-06T10:19:18;101501.78;;;9.22;86.68
73516;BME280;61763;51.416;5.442;2023-04-06T10:21:48;101512.88;;;9.13;89.49
73516;BME280;61763;51.416;5.442;2023-04-06T10:24:15;101497.00;;;9.04;87.46
73516;BME280;61763;51.416;5.442;2023-04-06T10:26:42;101501.94;;;8.91;89.58
73516;BME280;61763;51.416;5.442;2023-04-06T10:29:07;101504.97;;;9.08;90.07
73516;BME280;61763;51.416;5.442;2023-04-06T10:31:39;101496.19;;;9.02;89.06
73516;BME280;61763;51.416;5.442;2023-04-06T10:34:07;101501.56;;;9.02;92.03
73516;BME280;61763;51.416;5.442;2023-04-06T10:36:33;101509.16;;;8.89;95.54
73516;BME280;61763;51.416;5.442;2023-04-06T10:39:01;101499.00;;;8.99;94.65
73516;BME280;61763;51.416;5.442;2023-04-06T10:41:44;101503.78;;;8.89;94.97
73516;BME280;61763;51.416;5.442;2023-04-06T10:44:20;101496.44;;;8.94;94.06
73516;BME280;61763;51.416;5.442;2023-04-06T10:46:54;101493.13;;;8.86;97.96
73516;BME280;61763;51.416;5.442;2023-04-06T10:49:20;101495.13;;;8.51;98.33
73516;BME280;61763;51.416;5.442;2023-04-06T10:51:51;101493.25;;;8.54;100.00
73516;BME280;61763;51.416;5.442;2023-04-06T10:54:19;101500.88;;;8.38;100.00
73516;BME280;61763;51.416;5.442;2023-04-06T10:56:45;101497.44;;;8.33;100.00
73516;BME280;61763;51.416;5.442;2023-04-06T10:59:11;101481.22;;;8.36;100.00
73516;BME280;61763;51.416;5.442;2023-04-06T11:01:36;101494.34;;;8.47;100.00
73516;BME280;61763;51.416;5.442;2023-04-06T11:04:07;101489.44;;;8.30;100.00
73516;BME280;61763;51.416;5.442;2023-04-06T11:06:34;101490.25;;;8.34;100.00
73516;BME280;61763;51.416;5.442;2023-04-06T11:09:01;101490.88;;;8.42;100.00
73516;BME280;61763;51.416;5.442;2023-04-06T11:11:26;101490.41;;;8.29;100.00
73516;BME280;61763;51.416;5.442;2023-04-06T11:13:58;101489.59;;;8.25;100.00
73516;BME280;61763;51.416;5.442;2023-04-06T11:16:24;101485.69;;;8.06;100.00
73516;BME280;61763;51.416;5.442;2023-04-06T11:21:19;101488.97;;;8.17;100.00
73516;BME280;61763;51.416;5.442;2023-04-06T11:23:45;101487.13;;;8.18;100.00
73516;BME280;61763;51.416;5.442;2023-04-06T11:26:14;101484.94;;;8.01;100.00
73516;BME280;61763;51.416;5.442;2023-04-06T11:28:41;101479.78;;;8.24;100.00
73516;BME280;61763;51.416;5.442;2023-04-06T11:31:10;101473.09;;;8.38;100.00
73516;BME280;61763;51.416;5.442;2023-04-06T11:33:37;101469.78;;;8.86;100.00
73516;BME280;61763;51.416;5.442;2023-04-06T11:36:04;101461.34;;;8.70;100.00
73516;BME280;61763;51.416;5.442;2023-04-06T11:38:30;101459.41;;;9.01;100.00
73516;BME280;61763;51.416;5.442;2023-04-06T11:40:55;101466.31;;;9.09;100.00
73516;BME280;61763;51.416;5.442;2023-04-06T11:43:29;101456.88;;;9.23;100.00
73516;BME280;61763;51.416;5.442;2023-04-06T11:46:02;101456.69;;;9.29;100.00
73516;BME280;61763;51.416;5.442;2023-04-06T11:48:29;101446.25;;;9.43;100.00
73516;BME280;61763;51.416;5.442;2023-04-06T11:50:56;101450.72;;;9.44;100.00
73516;BME280;61763;51.416;5.442;2023-04-06T11:53:22;101437.25;;;9.44;100.00
73516;BME280;61763;51.416;5.442;2023-04-06T11:55:49;101445.41;;;9.43;100.00
73516;BME280;61763;51.416;5.442;2023-04-06T11:58:14;101441.22;;;9.34;100.00
73516;BME280;61763;51.416;5.442;2023-04-06T12:00:40;101441.53;;;9.50;100.00
73516;BME280;61763;51.416;5.442;2023-04-06T12:03:10;101427.66;;;9.61;100.00
73516;BME280;61763;51.416;5.442;2023-04-06T12:05:36;101423.44;;;9.28;100.00
73516;BME280;61763;51.416;5.442;2023-04-06T12:08:01;101430.88;;;9.22;100.00
73516;BME280;61763;51.416;5.442;2023-04-06T12:10:28;101436.31;;;9.20;100.00
73516;BME280;61763;51.416;5.442;2023-04-06T12:12:53;101432.25;;;9.34;100.00
73516;BME280;61763;51.416;5.442;2023-04-06T12:15:18;101422.31;;;9.36;100.00
73516;BME280;61763;51.416;5.442;2023-04-06T12:17:44;101428.66;;;9.58;100.00
73516;BME280;61763;51.416;5.442;2023-04-06T12:20:10;101424.06;;;9.37;100.00
73516;BME280;61763;51.416;5.442;2023-04-06T12:22:35;101416.25;;;9.54;100.00
73516;BME280;61763;51.416;5.442;2023-04-06T12:25:01;101423.97;;;9.40;100.00
73516;BME280;61763;51.416;5.442;2023-04-06T12:27:27;101428.56;;;9.36;100.00
73516;BME280;61763;51.416;5.442;2023-04-06T12:29:53;101429.22;;;9.18;100.00
73516;BME280;61763;51.416;5.442;2023-04-06T12:32:20;101426.94;;;9.05;100.00
73516;BME280;61763;51.416;5.442;2023-04-06T12:34:46;101429.38;;;8.88;100.00
73516;BME280;61763;51.416;5.442;2023-04-06T12:37:11;101424.97;;;8.85;100.00
73516;BME280;61763;51.416;5.442;2023-04-06T12:39:38;101431.09;;;8.62;100.00
73516;BME280;61763;51.416;5.442;2023-04-06T12:42:04;101423.28;;;8.54;100.00
73516;BME280;61763;51.416;5.442;2023-04-06T12:44:30;101422.81;;;8.40;100.00
73516;BME280;61763;51.416;5.442;2023-04-06T12:46:55;101419.47;;;8.32;100.00
73516;BME280;61763;51.416;5.442;2023-04-06T12:49:21;101426.53;;;8.36;100.00
73516;BME280;61763;51.416;5.442;2023-04-06T12:51:47;101414.84;;;8.37;100.00
73516;BME280;61763;51.416;5.442;2023-04-06T12:54:12;101416.72;;;8.35;100.00
73516;BME280;61763;51.416;5.442;2023-04-06T12:56:38;101411.88;;;8.46;100.00